Terminal Aerodrome Forecast
Issued by NWS

Home | Current Version | Previous Version | Text Only | Print | Product List | Glossary Off
Versions: 1 2 3 4 5 6 7 8 9 10 11 12 13 14 15 16

000
FTUS43 KICT 041135
TAFSLN
TAF
KSLN 041135Z 0412/0512 VRB03KT P6SM FEW013
      TEMPO 0412/0414 3SM BR BKN013
     FM041400 31007KT P6SM FEW015
     FM041600 28007KT P6SM SKC=

USA.gov is the U.S. government's official web portal to all federal, state and local government web resources and services.